Time;durP1;ratioP1;P1;durP2;ratioP2;P2;SDS_P1;SDS_P2;PMS_P1;PMS_P2;Temp;Humidity;BMP_temperature;BMP_pressure;BME280_temperature;BME280_humidity;BME280_pressure;Samples;Min_cycle;Max_cycle;Signal;HPM_P1;HPM_P2
2023/12/02 00:01:24;;;;;;;42.93;25.27;;;-1.30;99.90;;;;;;5024161;28;20448;-80
2023/12/02 00:03:52;;;;;;;40.93;26.67;;;-1.40;99.90;;;;;;5023683;28;20475;-80
2023/12/02 00:06:21;;;;;;;40.83;26.33;;;-1.30;99.90;;;;;;5024621;28;20519;-80
2023/12/02 00:08:49;;;;;;;42.57;25.70;;;-1.30;99.90;;;;;;5024881;28;20443;-80
2023/12/02 00:11:19;;;;;;;48.30;29.20;;;-1.30;99.90;;;;;;5029927;28;20475;-80
2023/12/02 00:13:47;;;;;;;44.07;26.93;;;-1.40;99.90;;;;;;5029251;28;20490;-80
2023/12/02 00:16:15;;;;;;;45.27;26.43;;;-1.30;99.90;;;;;;5029342;28;20483;-80
2023/12/02 00:18:44;;;;;;;47.13;27.70;;;-1.30;99.90;;;;;;5031348;28;20452;-80
2023/12/02 00:21:12;;;;;;;39.63;22.20;;;-1.30;99.90;;;;;;5031985;28;20439;-80
2023/12/02 00:23:40;;;;;;;41.90;25.80;;;-1.30;99.90;;;;;;5031312;28;20468;-80
2023/12/02 00:26:10;;;;;;;38.60;25.10;;;-1.30;99.90;;;;;;5027352;28;20448;-80
2023/12/02 00:28:40;;;;;;;41.07;24.73;;;-1.30;99.90;;;;;;5029783;28;20462;-81
2023/12/02 00:31:09;;;;;;;47.87;26.30;;;-1.30;99.90;;;;;;5028401;28;20464;-80
2023/12/02 00:33:37;;;;;;;47.10;25.43;;;-1.20;99.90;;;;;;5028329;28;20464;-80
2023/12/02 00:36:06;;;;;;;41.20;25.17;;;-1.20;99.90;;;;;;5028192;28;20462;-80
2023/12/02 00:38:34;;;;;;;47.37;28.13;;;-1.20;99.90;;;;;;5027947;28;20512;-80
2023/12/02 00:41:03;;;;;;;44.67;25.67;;;-1.20;99.90;;;;;;5028367;28;20436;-80
2023/12/02 00:43:31;;;;;;;44.43;27.00;;;-1.30;99.90;;;;;;5027440;28;20471;-81
2023/12/02 00:46:01;;;;;;;51.33;28.40;;;-1.20;99.90;;;;;;5027216;28;20486;-80
2023/12/02 00:48:29;;;;;;;46.47;28.50;;;-1.30;99.90;;;;;;5027481;28;20451;-80
2023/12/02 00:50:57;;;;;;;48.50;26.13;;;-1.20;99.90;;;;;;5026439;28;20475;-80
2023/12/02 00:53:26;;;;;;;51.87;27.60;;;-1.30;99.90;;;;;;5026801;28;20463;-80
2023/12/02 00:55:54;;;;;;;51.67;28.07;;;-1.20;99.90;;;;;;5026435;28;20447;-80
2023/12/02 00:58:22;;;;;;;49.90;26.87;;;-1.20;99.90;;;;;;5026230;28;20476;-80
2023/12/02 01:01:07;;;;;;;52.20;30.03;;;-1.20;99.90;;;;;;5025324;28;20439;-80
2023/12/02 01:03:36;;;;;;;47.13;27.90;;;-1.20;99.90;;;;;;5026736;28;20483;-80
2023/12/02 01:06:04;;;;;;;49.10;28.30;;;-1.20;99.90;;;;;;5024961;28;20451;-80
2023/12/02 01:08:33;;;;;;;43.63;26.93;;;-1.20;99.90;;;;;;5025929;28;20854;-80
2023/12/02 01:11:03;;;;;;;48.80;28.47;;;-1.00;99.90;;;;;;5025052;28;20462;-80
2023/12/02 01:13:32;;;;;;;54.17;29.47;;;-1.20;99.90;;;;;;5025060;28;20567;-80
2023/12/02 01:16:00;;;;;;;47.10;28.03;;;-1.20;99.90;;;;;;5025615;28;20480;-80
2023/12/02 01:18:30;;;;;;;55.23;30.73;;;-1.20;99.90;;;;;;5024463;28;20806;-80
2023/12/02 01:20:58;;;;;;;57.73;31.47;;;-1.20;99.90;;;;;;5024911;28;20455;-80
2023/12/02 01:23:26;;;;;;;57.03;31.23;;;-1.10;99.90;;;;;;5024808;28;20468;-80
2023/12/02 01:25:55;;;;;;;53.70;27.77;;;-1.10;99.90;;;;;;5024056;28;20481;-80
2023/12/02 01:28:23;;;;;;;58.33;30.00;;;-1.10;99.90;;;;;;5024554;28;20451;-80
2023/12/02 01:30:51;;;;;;;60.20;30.87;;;-1.10;99.90;;;;;;5027963;28;20949;-80
2023/12/02 01:33:20;;;;;;;65.37;34.70;;;-1.10;99.90;;;;;;5027473;28;20490;-80
2023/12/02 01:35:49;;;;;;;61.47;35.20;;;-1.00;99.90;;;;;;5027451;28;20459;-80
2023/12/02 01:38:18;;;;;;;66.10;32.20;;;-1.00;99.90;;;;;;5027328;28;20478;-80
2023/12/02 01:40:46;;;;;;;61.50;31.90;;;-1.10;99.90;;;;;;5027445;28;20448;-80
2023/12/02 01:43:25;;;;;;;59.87;35.47;;;-1.00;99.90;;;;;;5028174;28;20529;-80
2023/12/02 01:45:55;;;;;;;60.50;34.00;;;-1.00;99.90;;;;;;5028912;28;20785;-80
2023/12/02 01:48:27;;;;;;;58.37;31.87;;;-1.00;99.90;;;;;;5027036;28;20957;-80
2023/12/02 01:50:57;;;;;;;57.53;31.87;;;-1.00;99.90;;;;;;5027242;28;20523;-80
2023/12/02 01:53:25;;;;;;;54.43;29.00;;;-1.00;99.90;;;;;;5026391;28;20494;-80
2023/12/02 01:55:54;;;;;;;51.43;30.00;;;-1.00;99.90;;;;;;5027704;28;20866;-80
2023/12/02 01:58:23;;;;;;;55.20;32.73;;;-1.00;99.90;;;;;;5027006;28;20554;-80
2023/12/02 02:00:51;;;;;;;49.60;28.27;;;-1.00;99.90;;;;;;5026757;28;20466;-80
2023/12/02 02:03:19;;;;;;;59.53;32.67;;;-0.90;99.90;;;;;;5026557;28;20474;-80
2023/12/02 02:05:48;;;;;;;55.50;33.00;;;-0.90;99.90;;;;;;5026407;28;20452;-80
2023/12/02 02:08:18;;;;;;;61.30;32.50;;;-0.90;99.90;;;;;;5026818;28;20448;-80
2023/12/02 02:10:46;;;;;;;57.70;32.73;;;-0.90;99.90;;;;;;5027703;28;20436;-80
2023/12/02 02:13:14;;;;;;;58.90;31.90;;;-0.90;99.90;;;;;;5026668;28;20510;-80
2023/12/02 02:15:42;;;;;;;59.87;31.53;;;-0.90;99.90;;;;;;5026878;28;20466;-80
2023/12/02 02:18:10;;;;;;;57.97;32.67;;;-0.90;99.90;;;;;;5027291;28;20463;-80
2023/12/02 02:20:39;;;;;;;56.53;34.00;;;-0.90;99.90;;;;;;5026506;28;20440;-80
2023/12/02 02:23:08;;;;;;;58.07;33.93;;;-0.90;99.90;;;;;;5027523;28;20475;-80
2023/12/02 02:25:37;;;;;;;54.20;32.50;;;-0.90;99.90;;;;;;5027038;28;20452;-80
2023/12/02 02:28:05;;;;;;;55.30;30.13;;;-0.90;99.90;;;;;;5027101;28;20460;-81
2023/12/02 02:30:33;;;;;;;57.53;30.70;;;-0.90;99.90;;;;;;5030993;28;20471;-81
2023/12/02 02:33:02;;;;;;;53.20;30.93;;;-0.90;99.90;;;;;;5030545;28;20480;-80
2023/12/02 02:35:32;;;;;;;62.27;35.30;;;-0.90;99.90;;;;;;5030677;28;20448;-80
2023/12/02 02:38:01;;;;;;;51.67;30.00;;;-0.90;99.90;;;;;;5030481;28;20440;-81
2023/12/02 02:40:30;;;;;;;50.70;29.80;;;-0.90;99.90;;;;;;5030028;28;20515;-80
2023/12/02 02:42:59;;;;;;;48.00;30.13;;;-0.90;99.90;;;;;;5029049;28;20471;-80
2023/12/02 02:45:27;;;;;;;56.63;31.17;;;-0.90;99.90;;;;;;5029091;28;20502;-80
2023/12/02 02:47:55;;;;;;;60.00;31.63;;;-0.90;99.90;;;;;;5028398;28;20452;-80
2023/12/02 02:50:24;;;;;;;54.60;32.43;;;-0.90;99.90;;;;;;5028758;28;20452;-80
2023/12/02 02:52:52;;;;;;;53.30;32.10;;;-0.90;99.90;;;;;;5027901;28;20471;-80
2023/12/02 02:55:21;;;;;;;56.10;32.60;;;-0.90;99.90;;;;;;5028488;28;20816;-80
2023/12/02 02:57:50;;;;;;;54.33;31.60;;;-0.90;99.90;;;;;;5027337;28;20452;-80
2023/12/02 03:00:19;;;;;;;55.27;32.33;;;-0.90;99.90;;;;;;5027226;28;20448;-80
2023/12/02 03:02:47;;;;;;;61.50;31.90;;;-0.90;99.90;;;;;;5026184;28;20468;-80
2023/12/02 03:05:16;;;;;;;54.53;29.50;;;-0.90;99.90;;;;;;5026858;28;20448;-80
2023/12/02 03:07:44;;;;;;;57.10;32.20;;;-0.90;99.90;;;;;;5025652;28;20502;-80
2023/12/02 03:10:13;;;;;;;55.77;32.43;;;-0.90;99.90;;;;;;5025680;28;20447;-80
2023/12/02 03:12:42;;;;;;;57.40;31.63;;;-0.90;99.90;;;;;;5024474;28;20838;-80
2023/12/02 03:15:13;;;;;;;53.80;32.87;;;-0.90;99.90;;;;;;5024175;28;20491;-80
2023/12/02 03:17:41;;;;;;;57.77;31.63;;;-0.80;99.90;;;;;;5024890;28;20522;-80
2023/12/02 03:20:10;;;;;;;59.40;31.37;;;-0.80;99.90;;;;;;5024632;28;20450;-80
2023/12/02 03:22:39;;;;;;;54.03;32.33;;;-0.80;99.90;;;;;;5025488;28;20472;-80
2023/12/02 03:25:08;;;;;;;52.80;29.73;;;-0.80;99.90;;;;;;5024574;28;20471;-80
2023/12/02 03:27:36;;;;;;;53.40;30.10;;;-0.80;99.90;;;;;;5033734;28;20455;-80
2023/12/02 03:30:05;;;;;;;54.33;32.17;;;-0.80;99.90;;;;;;5026874;28;20452;-80
2023/12/02 03:32:38;;;;;;;57.73;31.17;;;-0.80;99.90;;;;;;5027660;28;20985;-81
2023/12/02 03:35:08;;;;;;;53.07;32.53;;;-0.80;99.90;;;;;;5027016;28;20450;-81
2023/12/02 03:37:36;;;;;;;53.33;29.97;;;-0.80;99.90;;;;;;5025731;28;20439;-80
2023/12/02 03:40:06;;;;;;;51.17;30.10;;;-0.70;99.90;;;;;;5025967;28;20452;-80
2023/12/02 03:42:34;;;;;;;52.30;31.40;;;-0.80;99.90;;;;;;5025385;28;20476;-80
2023/12/02 03:45:03;;;;;;;55.07;30.27;;;-0.80;99.90;;;;;;5027637;28;20436;-80
2023/12/02 03:47:31;;;;;;;56.63;30.93;;;-0.80;99.90;;;;;;5025615;28;20472;-80
2023/12/02 03:50:01;;;;;;;57.27;31.60;;;-0.80;99.90;;;;;;5025686;28;20458;-80
2023/12/02 03:52:30;;;;;;;61.13;30.60;;;-0.70;99.90;;;;;;5024779;28;20499;-80
2023/12/02 03:54:58;;;;;;;56.03;32.20;;;-0.80;99.90;;;;;;5025360;28;20571;-80
2023/12/02 03:57:26;;;;;;;58.70;31.30;;;-0.70;99.90;;;;;;5024949;28;20952;-80
2023/12/02 03:59:55;;;;;;;53.60;32.77;;;-0.70;99.90;;;;;;5026359;28;20442;-80
2023/12/02 04:02:23;;;;;;;54.90;31.60;;;-0.70;99.90;;;;;;5024975;28;20526;-80
2023/12/02 04:04:52;;;;;;;54.63;30.67;;;-0.70;99.90;;;;;;5024776;28;20456;-80
2023/12/02 04:07:21;;;;;;;54.53;31.60;;;-0.70;99.90;;;;;;4984862;28;1158642;-80
2023/12/02 04:09:49;;;;;;;57.03;30.90;;;-0.70;99.90;;;;;;5025152;28;20287;-80
2023/12/02 04:12:18;;;;;;;49.60;32.00;;;-0.70;99.90;;;;;;5025364;28;20811;-80
2023/12/02 04:14:46;;;;;;;59.83;31.83;;;-0.70;99.90;;;;;;5025353;28;20460;-80
2023/12/02 04:17:15;;;;;;;51.30;30.57;;;-0.70;99.90;;;;;;5024252;28;20854;-80
2023/12/02 04:19:43;;;;;;;54.33;30.70;;;-0.60;99.90;;;;;;5024538;28;20460;-80
2023/12/02 04:22:12;;;;;;;59.17;32.13;;;-0.60;99.90;;;;;;5025460;28;20451;-80
2023/12/02 04:24:42;;;;;;;51.77;30.47;;;-0.60;99.90;;;;;;5023647;28;20476;-80
2023/12/02 04:27:11;;;;;;;54.60;33.67;;;-0.50;99.90;;;;;;5024188;28;20480;-80
2023/12/02 04:29:42;;;;;;;56.60;31.17;;;-0.60;99.90;;;;;;5024353;28;20930;-81
2023/12/02 04:32:10;;;;;;;49.57;30.57;;;-0.60;99.90;;;;;;5028325;28;20482;-80
2023/12/02 04:34:39;;;;;;;50.73;28.70;;;-0.60;99.90;;;;;;5030530;28;20467;-80
2023/12/02 04:37:07;;;;;;;56.33;29.47;;;-0.60;99.90;;;;;;5029353;28;20434;-80
2023/12/02 04:39:35;;;;;;;57.83;31.43;;;-0.50;99.90;;;;;;5028115;28;20488;-80
2023/12/02 04:42:05;;;;;;;51.40;31.90;;;-0.60;99.90;;;;;;5027501;28;20464;-79
2023/12/02 04:44:34;;;;;;;67.37;33.13;;;-0.50;99.90;;;;;;5027568;28;20534;-80
2023/12/02 04:47:02;;;;;;;50.77;31.00;;;-0.50;99.90;;;;;;5027609;28;20448;-80
2023/12/02 04:49:30;;;;;;;55.70;30.80;;;-0.50;99.90;;;;;;5027825;28;20458;-80
2023/12/02 04:51:59;;;;;;;56.23;32.60;;;-0.40;99.90;;;;;;5027120;28;20468;-80
2023/12/02 04:54:27;;;;;;;53.47;32.07;;;-0.50;99.90;;;;;;5026383;28;20468;-80
2023/12/02 04:56:55;;;;;;;53.30;29.83;;;-0.50;99.90;;;;;;5026193;28;20452;-80
2023/12/02 04:59:25;;;;;;;50.47;29.63;;;-0.50;99.90;;;;;;5025917;28;20555;-80
2023/12/02 05:01:54;;;;;;;58.10;31.80;;;-0.50;99.90;;;;;;5025605;28;20451;-80
2023/12/02 05:04:22;;;;;;;47.33;28.90;;;-0.50;99.90;;;;;;5028646;28;20435;-80
2023/12/02 05:06:51;;;;;;;52.13;31.00;;;-0.50;99.90;;;;;;5028977;28;20965;-79
2023/12/02 05:09:20;;;;;;;51.50;30.70;;;-0.50;99.90;;;;;;5028974;28;20463;-80
2023/12/02 05:11:48;;;;;;;56.53;31.83;;;-0.50;99.90;;;;;;5028959;28;20900;-80
2023/12/02 05:14:17;;;;;;;58.53;33.63;;;-0.50;99.90;;;;;;5029413;28;20475;-80
2023/12/02 05:16:46;;;;;;;51.20;31.90;;;-0.40;99.90;;;;;;5028427;28;20448;-80
2023/12/02 05:19:15;;;;;;;49.57;27.90;;;-0.40;99.90;;;;;;5028393;28;20946;-80
2023/12/02 05:21:43;;;;;;;48.90;30.07;;;-0.40;99.90;;;;;;5027674;28;20450;-80
2023/12/02 05:24:12;;;;;;;56.67;31.30;;;-0.40;99.90;;;;;;5028257;28;20498;-80
2023/12/02 05:26:40;;;;;;;50.13;29.90;;;-0.40;99.90;;;;;;5027541;28;20542;-80
2023/12/02 05:29:08;;;;;;;47.60;29.83;;;-0.40;99.90;;;;;;5027909;28;20459;-80
2023/12/02 05:31:38;;;;;;;46.90;29.20;;;-0.40;99.90;;;;;;5027033;28;20513;-80
2023/12/02 05:34:08;;;;;;;47.37;29.03;;;-0.40;99.90;;;;;;5027164;28;20487;-79
2023/12/02 05:36:36;;;;;;;43.60;27.97;;;-0.40;99.90;;;;;;5029286;28;20475;-80
2023/12/02 05:39:05;;;;;;;45.97;30.07;;;-0.40;99.90;;;;;;5026752;28;20476;-79
2023/12/02 05:41:33;;;;;;;46.47;28.27;;;-0.40;99.90;;;;;;5029710;28;20472;-79
2023/12/02 05:44:01;;;;;;;45.70;27.63;;;-0.40;99.90;;;;;;5027528;28;20503;-80
2023/12/02 05:46:29;;;;;;;44.70;28.00;;;-0.40;99.90;;;;;;5026037;28;20949;-79
2023/12/02 05:48:58;;;;;;;45.43;25.90;;;-0.40;99.90;;;;;;5026629;28;20447;-79
2023/12/02 05:51:28;;;;;;;49.00;27.90;;;-0.40;99.90;;;;;;5025425;28;20458;-78
2023/12/02 05:53:56;;;;;;;46.17;26.60;;;-0.40;99.90;;;;;;5025928;28;20467;-79
2023/12/02 05:56:24;;;;;;;53.07;32.10;;;-0.40;99.90;;;;;;5026146;28;20448;-79
2023/12/02 05:58:53;;;;;;;46.00;28.30;;;-0.40;99.90;;;;;;5027859;28;20440;-79
2023/12/02 06:01:22;;;;;;;46.03;29.17;;;-0.40;99.90;;;;;;5025825;28;20491;-79
2023/12/02 06:03:50;;;;;;;47.90;28.03;;;-0.30;99.90;;;;;;5025407;28;20507;-79
2023/12/02 06:06:19;;;;;;;45.60;27.00;;;-0.30;99.90;;;;;;5025279;28;20454;-79
2023/12/02 06:08:49;;;;;;;45.47;26.53;;;-0.30;99.90;;;;;;5025058;28;20483;-79
2023/12/02 06:11:17;;;;;;;47.03;26.77;;;-0.30;99.90;;;;;;5025786;28;20452;-79
2023/12/02 06:13:45;;;;;;;46.47;26.73;;;-0.30;99.90;;;;;;5025214;28;20492;-80
2023/12/02 06:16:13;;;;;;;45.43;27.73;;;-0.30;99.90;;;;;;5025056;28;20448;-79
2023/12/02 06:18:41;;;;;;;45.67;27.90;;;-0.30;99.90;;;;;;5027437;28;20444;-79
2023/12/02 06:21:12;;;;;;;49.03;29.03;;;-0.30;99.90;;;;;;5025854;28;20487;-79
2023/12/02 06:23:40;;;;;;;47.73;27.93;;;-0.40;99.90;;;;;;5026153;28;20471;-80
2023/12/02 06:26:10;;;;;;;44.00;26.40;;;-0.30;99.90;;;;;;5025660;28;20454;-81
2023/12/02 06:28:39;;;;;;;44.03;27.50;;;-0.40;99.90;;;;;;5026171;28;20870;-80
2023/12/02 06:31:13;;;;;;;44.70;27.00;;;-0.40;99.90;;;;;;5025259;28;20448;-80
2023/12/02 06:33:43;;;;;;;45.83;26.97;;;-0.30;99.90;;;;;;5021337;28;20932;-80
2023/12/02 06:36:12;;;;;;;52.73;28.73;;;-0.30;99.90;;;;;;5020950;28;20494;-81
2023/12/02 06:38:40;;;;;;;52.17;28.73;;;-0.40;99.90;;;;;;5020473;28;20455;-80
2023/12/02 06:41:10;;;;;;;47.33;29.00;;;-0.40;99.90;;;;;;5020381;28;20459;-80
2023/12/02 06:43:38;;;;;;;48.83;29.67;;;-0.40;99.90;;;;;;5019580;28;20477;-80
2023/12/02 06:46:08;;;;;;;50.57;30.70;;;-0.40;99.90;;;;;;5018785;28;20475;-79
2023/12/02 06:48:37;;;;;;;48.77;28.17;;;-0.40;99.90;;;;;;5020164;28;20466;-79
2023/12/02 06:51:05;;;;;;;51.13;29.47;;;-0.30;99.90;;;;;;5019831;28;20506;-79
2023/12/02 06:53:37;;;;;;;50.83;29.07;;;-0.30;99.90;;;;;;5019214;28;20535;-80
2023/12/02 06:56:06;;;;;;;53.73;29.90;;;-0.30;99.90;;;;;;5019419;28;20526;-80
2023/12/02 06:58:38;;;;;;;46.10;28.50;;;-0.30;99.90;;;;;;5019133;28;20456;-79
2023/12/02 07:01:07;;;;;;;52.43;31.00;;;-0.30;99.90;;;;;;5018651;28;20919;-80
2023/12/02 07:03:35;;;;;;;49.13;28.57;;;-0.30;99.90;;;;;;5019756;28;20503;-79
2023/12/02 07:06:04;;;;;;;45.60;30.40;;;-0.30;99.90;;;;;;5018482;28;20502;-79
2023/12/02 07:08:32;;;;;;;53.67;32.53;;;-0.30;99.90;;;;;;5019086;28;20471;-79
2023/12/02 07:11:00;;;;;;;52.60;31.20;;;-0.30;99.90;;;;;;5019301;28;20455;-79
2023/12/02 07:13:28;;;;;;;57.17;30.37;;;-0.30;99.90;;;;;;5019151;28;20460;-79
2023/12/02 07:15:58;;;;;;;52.10;30.90;;;-0.30;99.90;;;;;;5019402;28;20574;-80
2023/12/02 07:18:26;;;;;;;49.27;28.77;;;-0.30;99.90;;;;;;5020384;28;20432;-79
2023/12/02 07:20:55;;;;;;;49.13;29.87;;;-0.30;99.90;;;;;;5018931;28;20452;-80
2023/12/02 07:23:25;;;;;;;51.33;29.00;;;-0.30;99.90;;;;;;5018194;28;20815;-79
2023/12/02 07:25:54;;;;;;;48.47;26.90;;;-0.30;99.90;;;;;;5020352;28;20424;-79
2023/12/02 07:28:22;;;;;;;51.80;32.13;;;-0.30;99.90;;;;;;5019354;28;20440;-79
2023/12/02 07:30:50;;;;;;;50.77;29.10;;;-0.30;99.90;;;;;;5018841;28;20487;-80
2023/12/02 07:33:21;;;;;;;52.67;29.37;;;-0.30;99.90;;;;;;5019216;28;20470;-80
2023/12/02 07:35:50;;;;;;;45.57;27.83;;;-0.30;99.90;;;;;;5017838;28;20468;-79
2023/12/02 07:38:18;;;;;;;48.67;28.93;;;-0.40;99.90;;;;;;5018070;28;20451;-80
2023/12/02 07:40:46;;;;;;;48.57;28.27;;;-0.30;99.90;;;;;;5017497;28;20448;-81
2023/12/02 07:43:15;;;;;;;50.23;30.43;;;-0.40;99.90;;;;;;5018086;28;20486;-80
2023/12/02 07:45:43;;;;;;;50.47;30.30;;;-0.40;99.90;;;;;;5019472;28;20530;-80
2023/12/02 07:48:14;;;;;;;50.63;30.83;;;-0.30;99.90;;;;;;5017809;28;20488;-81
2023/12/02 07:50:44;;;;;;;52.00;31.20;;;-0.40;99.90;;;;;;5017819;28;20452;-80
2023/12/02 07:53:12;;;;;;;45.23;28.50;;;-0.30;99.90;;;;;;5017746;28;20478;-80
2023/12/02 07:55:40;;;;;;;47.83;29.60;;;-0.30;99.90;;;;;;5017298;28;21003;-80
2023/12/02 07:58:11;;;;;;;48.90;27.53;;;-0.30;99.90;;;;;;5017595;28;20476;-80
2023/12/02 08:00:40;;;;;;;51.70;30.63;;;-0.30;99.90;;;;;;5018698;28;20462;-80
2023/12/02 08:03:08;;;;;;;53.40;30.93;;;-0.30;99.90;;;;;;5016788;28;20529;-80
2023/12/02 08:05:36;;;;;;;50.30;30.53;;;-0.30;99.90;;;;;;5017009;28;20444;-80
2023/12/02 08:08:09;;;;;;;43.20;26.03;;;-0.30;99.90;;;;;;5017186;28;20462;-80
2023/12/02 08:10:37;;;;;;;48.17;28.53;;;-0.30;99.90;;;;;;5016854;28;20539;-80
2023/12/02 08:13:05;;;;;;;52.50;30.70;;;-0.30;99.90;;;;;;5016404;28;20486;-80
2023/12/02 08:15:34;;;;;;;50.60;31.63;;;-0.30;99.90;;;;;;5016983;28;20579;-80
2023/12/02 08:18:03;;;;;;;50.37;30.37;;;-0.20;99.90;;;;;;5016876;28;20475;-80
2023/12/02 08:20:31;;;;;;;50.87;30.60;;;-0.30;99.90;;;;;;5016520;28;20456;-80
2023/12/02 08:22:59;;;;;;;50.53;29.87;;;-0.30;99.90;;;;;;5016803;28;20471;-80
2023/12/02 08:25:29;;;;;;;53.53;32.13;;;-0.30;99.90;;;;;;5016555;28;20540;-81
2023/12/02 08:27:57;;;;;;;54.43;29.10;;;-0.30;99.90;;;;;;5017822;28;20455;-80
2023/12/02 08:30:26;;;;;;;56.50;30.53;;;-0.30;99.90;;;;;;5017653;28;20536;-79
2023/12/02 08:32:54;;;;;;;52.20;30.67;;;-0.30;99.90;;;;;;5016861;28;20511;-80
2023/12/02 08:35:22;;;;;;;48.63;30.73;;;-0.20;99.90;;;;;;5019046;28;20603;-81
2023/12/02 08:37:51;;;;;;;50.20;29.37;;;-0.20;99.90;;;;;;5018777;28;20440;-81
2023/12/02 08:40:19;;;;;;;52.40;31.90;;;-0.20;99.90;;;;;;5018097;28;20459;-80
2023/12/02 08:42:49;;;;;;;45.03;28.70;;;-0.20;99.90;;;;;;5018758;28;20464;-80
2023/12/02 08:45:17;;;;;;;50.83;29.97;;;-0.10;99.90;;;;;;5017939;28;20478;-80
2023/12/02 08:47:46;;;;;;;51.87;30.67;;;-0.20;99.90;;;;;;5017776;28;20450;-82
2023/12/02 08:50:14;;;;;;;44.70;28.80;;;-0.20;99.90;;;;;;5017548;28;20941;-81
2023/12/02 08:52:42;;;;;;;49.50;31.27;;;-0.20;99.90;;;;;;5017936;28;20507;-81
2023/12/02 08:55:11;;;;;;;50.70;32.40;;;-0.20;99.90;;;;;;5017981;28;20451;-81
2023/12/02 08:57:42;;;;;;;51.73;30.50;;;-0.20;99.90;;;;;;5017829;28;20440;-81
2023/12/02 09:00:13;;;;;;;47.83;30.13;;;-0.20;99.90;;;;;;5017094;28;20841;-81
2023/12/02 09:02:41;;;;;;;49.57;29.07;;;-0.10;99.90;;;;;;5017293;28;20499;-82
2023/12/02 09:05:10;;;;;;;48.93;29.50;;;-0.20;99.90;;;;;;5015331;28;20979;-80
2023/12/02 09:07:38;;;;;;;49.50;29.00;;;-0.20;99.90;;;;;;5014454;28;20466;-80
2023/12/02 09:10:08;;;;;;;45.90;29.93;;;-0.10;99.90;;;;;;5015455;28;20444;-82
2023/12/02 09:12:36;;;;;;;40.43;27.60;;;-0.10;99.90;;;;;;5016518;28;20488;-81
2023/12/02 09:15:08;;;;;;;47.27;30.57;;;-0.10;99.90;;;;;;5015696;28;20825;-80
2023/12/02 09:18:08;;;;;;;49.00;29.90;;;-0.10;99.90;;;;;;5016628;28;20455;-82
2023/12/02 09:20:45;;;;;;;44.57;27.50;;;0.00;99.90;;;;;;5023354;28;20448;-83
2023/12/02 09:23:15;;;;;;;46.50;30.07;;;0.00;99.90;;;;;;5021499;28;20475;-82
2023/12/02 09:25:45;;;;;;;49.43;30.40;;;0.00;99.90;;;;;;5022765;28;20437;-83
2023/12/02 09:28:18;;;;;;;49.53;32.27;;;0.00;99.90;;;;;;5021632;28;20487;-82
2023/12/02 09:30:59;;;;;;;43.17;28.87;;;0.00;99.90;;;;;;5021406;28;20444;-82
2023/12/02 09:33:39;;;;;;;44.30;27.77;;;0.10;99.90;;;;;;5016945;28;20496;-81
2023/12/02 09:36:24;;;;;;;48.63;29.43;;;0.10;99.90;;;;;;5016428;28;20463;-81
2023/12/02 09:38:54;;;;;;;45.17;30.63;;;0.10;99.90;;;;;;5013797;28;20443;-80
2023/12/02 09:41:34;;;;;;;40.87;27.30;;;0.10;99.90;;;;;;5019521;28;20457;-78
2023/12/02 09:44:24;;;;;;;47.93;29.33;;;0.20;99.90;;;;;;5017431;28;20455;-81
2023/12/02 09:47:03;;;;;;;47.17;30.63;;;0.20;99.90;;;;;;5015124;28;20444;-77
2023/12/02 09:50:03;;;;;;;46.80;28.93;;;0.20;99.90;;;;;;5012052;28;20455;-77
2023/12/02 09:52:53;;;;;;;43.00;27.00;;;0.20;99.90;;;;;;5015708;28;20464;-78
2023/12/02 09:55:28;;;;;;;44.97;28.38;;;0.30;99.90;;;;;;5016165;28;20534;-77
2023/12/02 09:58:07;;;;;;;42.30;27.13;;;0.30;99.90;;;;;;5015532;28;20231;-78
2023/12/02 10:00:43;;;;;;;41.50;27.15;;;0.30;99.90;;;;;;5017088;28;20529;-78
2023/12/02 10:03:45;;;;;;;41.50;28.40;;;0.40;99.90;;;;;;5018209;28;20220;-79
2023/12/02 10:06:28;;;;;;;43.30;30.10;;;0.40;99.90;;;;;;5017334;28;20435;-78
2023/12/02 10:09:05;;;;;;;39.40;26.27;;;0.40;99.90;;;;;;5016335;28;20452;-78
2023/12/02 10:11:39;;;;;;;47.13;29.00;;;0.50;99.90;;;;;;5016411;28;20488;-78
2023/12/02 10:14:11;;;;;;;43.75;26.65;;;0.50;99.90;;;;;;5015356;28;20928;-78
2023/12/02 10:16:43;;;;;;;41.17;29.70;;;0.50;99.90;;;;;;5017454;28;20558;-77
2023/12/02 10:19:23;;;;;;;42.93;29.80;;;0.50;99.90;;;;;;5016828;28;20448;-78
2023/12/02 10:21:59;;;;;;;38.20;27.30;;;0.50;99.90;;;;;;5016521;28;20542;-79
2023/12/02 10:24:36;;;;;;;43.43;29.40;;;0.50;99.90;;;;;;5016678;28;20518;-79
2023/12/02 10:27:06;;;;;;;41.03;26.53;;;0.50;99.90;;;;;;5017287;28;20456;-79
2023/12/02 10:29:42;;;;;;;44.07;28.90;;;0.50;99.90;;;;;;5017411;28;20498;-78
2023/12/02 10:32:19;;;;;;;47.70;28.40;;;0.50;99.90;;;;;;5018613;28;20833;-79
2023/12/02 10:35:00;;;;;;;41.67;24.43;;;0.50;99.90;;;;;;5018297;28;20524;-79
2023/12/02 10:37:37;;;;;;;40.97;27.17;;;0.60;99.90;;;;;;5017947;28;20814;-80
2023/12/02 10:40:08;;;;;;;41.43;26.50;;;0.60;99.90;;;;;;5017297;28;20443;-78
2023/12/02 10:42:49;;;;;;;44.10;27.53;;;0.60;99.90;;;;;;5019865;28;20475;-80
2023/12/02 10:45:20;;;;;;;40.60;26.87;;;0.60;99.90;;;;;;5018724;28;20445;-79
2023/12/02 10:47:52;;;;;;;40.60;26.30;;;0.60;99.90;;;;;;5016700;28;20470;-79
2023/12/02 10:50:21;;;;;;;40.20;24.50;;;0.60;99.90;;;;;;5016696;28;20536;-79
2023/12/02 10:52:58;;;;;;;38.80;27.63;;;0.60;99.90;;;;;;5016001;28;20469;-80
2023/12/02 10:55:31;;;;;;;38.13;26.70;;;0.60;99.90;;;;;;5016835;28;20456;-80
2023/12/02 10:58:03;;;;;;;42.57;27.40;;;0.60;99.90;;;;;;5018931;28;20469;-80
2023/12/02 11:00:34;;;;;;;39.93;26.23;;;0.60;99.90;;;;;;5019653;28;20454;-80
2023/12/02 11:03:07;;;;;;;45.53;31.20;;;0.70;99.90;;;;;;5017520;28;20896;-81
2023/12/02 11:05:44;;;;;;;42.63;26.73;;;0.70;99.90;;;;;;5019160;28;20454;-80
2023/12/02 11:08:20;;;;;;;41.90;27.80;;;0.70;99.90;;;;;;5019546;28;20459;-81
2023/12/02 11:10:50;;;;;;;34.17;22.10;;;0.70;99.90;;;;;;5019026;28;20468;-80
2023/12/02 11:13:21;;;;;;;39.73;29.13;;;0.70;99.90;;;;;;5019959;28;20499;-81
2023/12/02 11:16:14;;;;;;;42.10;28.77;;;0.70;99.90;;;;;;5019132;28;20459;-81
2023/12/02 11:19:00;;;;;;;40.80;26.67;;;0.70;99.90;;;;;;5016793;28;20476;-81
2023/12/02 11:21:39;;;;;;;39.73;25.47;;;0.70;99.90;;;;;;5017316;28;20466;-82
2023/12/02 11:24:23;;;;;;;39.17;27.00;;;0.70;99.90;;;;;;5017615;28;20447;-83
2023/12/02 11:27:04;;;;;;;40.07;26.97;;;0.70;99.90;;;;;;5017766;28;20547;-82
2023/12/02 11:29:55;;;;;;;39.10;26.60;;;0.70;99.90;;;;;;5018777;28;20429;-82
2023/12/02 11:32:36;;;;;;;41.20;26.03;;;0.70;99.90;;;;;;5017893;28;20466;-82
2023/12/02 11:35:14;;;;;;;42.00;27.60;;;0.70;99.90;;;;;;5017275;28;20539;-82
2023/12/02 11:38:03;;;;;;;36.97;25.20;;;0.70;99.90;;;;;;5017179;28;20471;-83
2023/12/02 11:40:52;;;;;;;38.93;26.73;;;0.70;99.90;;;;;;5016175;28;20539;-83
2023/12/02 11:43:35;;;;;;;39.50;26.60;;;0.60;99.90;;;;;;5016630;28;20464;-83
2023/12/02 11:46:11;;;;;;;44.27;27.40;;;0.60;99.90;;;;;;5017838;28;20420;-82
2023/12/02 11:48:47;;;;;;;41.40;30.50;;;0.70;99.90;;;;;;5017991;28;20429;-82
2023/12/02 11:51:29;;;;;;;40.27;26.77;;;0.70;99.90;;;;;;5016491;28;20448;-80
2023/12/02 11:54:19;;;;;;;40.90;26.83;;;0.70;99.90;;;;;;5016652;28;20815;-83
2023/12/02 11:57:07;;;;;;;37.23;26.57;;;0.80;99.90;;;;;;5016043;28;20546;-83
2023/12/02 11:59:50;;;;;;;43.10;27.07;;;0.80;99.90;;;;;;5017524;28;20440;-83
2023/12/02 12:02:46;;;;;;;41.73;26.33;;;0.80;99.90;;;;;;5019844;28;21033;-83
2023/12/02 12:05:30;;;;;;;40.70;29.23;;;0.80;99.90;;;;;;5017641;28;20423;-83
2023/12/02 12:08:06;;;;;;;40.47;27.50;;;0.80;99.90;;;;;;5016071;28;20460;-83
2023/12/02 12:10:36;;;;;;;34.87;23.73;;;0.80;99.90;;;;;;5016306;28;20865;-82
2023/12/02 12:13:09;;;;;;;34.40;24.80;;;0.90;99.90;;;;;;5015380;28;20479;-82
2023/12/02 12:15:38;;;;;;;37.23;27.40;;;0.90;99.90;;;;;;5015385;28;20443;-82
2023/12/02 12:18:08;;;;;;;34.80;24.27;;;0.90;99.90;;;;;;5015835;28;20495;-83
2023/12/02 12:20:37;;;;;;;34.87;27.50;;;0.90;99.90;;;;;;5015961;28;20455;-82
2023/12/02 12:23:07;;;;;;;35.60;24.80;;;0.90;99.90;;;;;;5016144;28;20556;-83
2023/12/02 12:25:36;;;;;;;26.97;20.97;;;0.90;99.90;;;;;;5018036;28;20446;-83
2023/12/02 12:28:07;;;;;;;33.70;22.40;;;0.90;99.90;;;;;;5017815;28;20449;-82
2023/12/02 12:30:43;;;;;;;37.70;25.50;;;0.90;99.90;;;;;;5017968;28;20446;-83
2023/12/02 12:33:16;;;;;;;34.20;26.50;;;0.90;99.90;;;;;;5017581;28;20521;-83
2023/12/02 12:35:45;;;;;;;36.63;23.67;;;0.90;99.90;;;;;;5018092;28;20458;-82
2023/12/02 12:38:13;;;;;;;34.40;24.53;;;1.00;99.90;;;;;;5017929;28;20471;-85
2023/12/02 12:40:43;;;;;;;36.27;23.30;;;1.00;99.90;;;;;;5017416;28;20884;-84
2023/12/02 12:43:14;;;;;;;36.17;25.60;;;1.00;99.90;;;;;;5017217;28;20475;-85
2023/12/02 12:45:43;;;;;;;32.27;22.83;;;1.00;99.90;;;;;;5017143;28;20470;-84
2023/12/02 12:48:12;;;;;;;30.80;23.57;;;1.00;99.90;;;;;;5017694;28;20857;-85
2023/12/02 12:50:42;;;;;;;31.00;23.50;;;1.10;99.90;;;;;;5017917;28;20527;-83